createdAt,value
2019-06-10T00:00:13.842Z,73.22
2019-06-10T00:02:38.328Z,73.42
2019-06-10T00:05:10.975Z,72.95
2019-06-10T00:07:41.529Z,71.99
2019-06-10T00:10:13.849Z,72.02
2019-06-10T00:12:44.226Z,72.05
2019-06-10T00:15:14.624Z,72.62
2019-06-10T00:17:55.015Z,73.35
2019-06-10T00:20:17.250Z,73.40
2019-06-10T00:22:47.777Z,74.19
2019-06-10T00:25:18.268Z,73.41
2019-06-10T00:27:51.066Z,73.13
2019-06-10T00:30:20.935Z,73.09
2019-06-10T00:32:51.622Z,73.21
2019-06-10T00:35:22.072Z,72.64
2019-06-10T00:37:52.634Z,73.56
2019-06-10T00:40:23.113Z,74.29
2019-06-10T00:42:53.601Z,74.96
2019-06-10T00:45:24.142Z,74.86
2019-06-10T00:48:08.584Z,74.77
2019-06-10T00:50:26.762Z,75.44
2019-06-10T00:53:01.296Z,74.96
2019-06-10T00:55:32.214Z,74.60
2019-06-10T00:58:04.058Z,74.73
2019-06-10T01:00:34.691Z,75.68
2019-06-10T01:03:06.040Z,75.02
2019-06-10T01:05:36.674Z,74.57
2019-06-10T01:08:08.622Z,74.46
2019-06-10T01:10:43.249Z,74.51
2019-06-10T01:13:12.260Z,75.17
2019-06-10T01:15:44.009Z,75.85
2019-06-10T01:18:31.990Z,76.71
2019-06-10T01:20:46.949Z,76.10
2019-06-10T01:23:17.673Z,75.78
2019-06-10T01:25:50.924Z,75.28
2019-06-10T01:28:22.023Z,75.75
2019-06-10T01:30:52.749Z,77.20
2019-06-10T01:33:23.170Z,76.34
2019-06-10T01:35:53.576Z,76.76
2019-06-10T01:38:24.010Z,76.81
2019-06-10T01:40:54.316Z,76.60
2019-06-10T01:43:24.862Z,77.35
2019-06-10T01:45:55.322Z,77.66
2019-06-10T01:48:40.195Z,77.43
2019-06-10T01:50:58.001Z,78.05
2019-06-10T01:53:31.192Z,77.67
2019-06-10T01:56:01.023Z,77.87
2019-06-10T01:58:31.785Z,77.66
2019-06-10T02:01:18.357Z,77.85
2019-06-10T02:03:47.299Z,77.33
2019-06-10T02:06:20.496Z,78.08
2019-06-10T02:08:51.510Z,77.66
2019-06-10T02:11:23.452Z,77.69
2019-06-10T02:13:54.230Z,76.70
2019-06-10T02:16:24.646Z,76.79
2019-06-10T02:19:00.496Z,77.11
2019-06-10T02:21:27.330Z,76.42
2019-06-10T02:23:57.812Z,76.92
2019-06-10T02:26:30.736Z,77.48
2019-06-10T02:29:00.773Z,77.66
2019-06-10T02:31:37.267Z,77.57
2019-06-10T02:34:03.743Z,76.68
2019-06-10T02:36:36.833Z,76.18
2019-06-10T02:39:09.661Z,77.21
2019-06-10T02:41:44.164Z,76.36
2019-06-10T02:44:17.178Z,76.97
2019-06-10T02:46:44.732Z,75.98
2019-06-10T02:49:29.678Z,76.60
2019-06-10T02:51:47.305Z,76.46
2019-06-10T02:54:20.236Z,76.96
2019-06-10T02:56:53.451Z,75.47
2019-06-10T02:59:27.538Z,75.46
2019-06-10T03:01:54.137Z,77.00
2019-06-10T03:04:31.466Z,76.88
2019-06-10T03:06:56.833Z,78.39
2019-06-10T03:09:31.583Z,79.00
2019-06-10T03:11:59.508Z,79.03
2019-06-10T03:14:29.894Z,78.45
2019-06-10T03:17:03.171Z,78.91
2019-06-10T03:19:46.502Z,79.55
2019-06-10T03:22:06.286Z,80.11
2019-06-10T03:24:36.826Z,79.84
2019-06-10T03:27:27.860Z,79.66
2019-06-10T03:30:02.752Z,79.84
2019-06-10T03:32:40.324Z,80.06
2019-06-10T03:35:05.336Z,80.40
2019-06-10T03:37:36.370Z,81.10
2019-06-10T03:40:06.992Z,81.19
2019-06-10T03:42:37.420Z,82.22
2019-06-10T03:45:08.492Z,81.93
2019-06-10T03:47:39.002Z,82.43
2019-06-10T03:50:09.496Z,83.01
2019-06-10T03:52:39.981Z,81.95
2019-06-10T03:55:12.256Z,81.93
2019-06-10T03:57:42.580Z,81.37
2019-06-10T04:00:14.226Z,83.18
2019-06-10T04:02:44.717Z,83.18
2019-06-10T04:05:15.147Z,82.89
2019-06-10T04:07:45.696Z,82.13
2019-06-10T04:10:17.440Z,82.14
2019-06-10T04:12:48.139Z,82.37
2019-06-10T04:15:19.711Z,82.56
2019-06-10T04:17:50.070Z,82.29
2019-06-10T04:20:24.670Z,81.42
2019-06-10T04:22:52.724Z,82.81
2019-06-10T04:25:25.286Z,83.72
2019-06-10T04:27:55.406Z,82.09
2019-06-10T04:30:27.559Z,81.53
2019-06-10T04:32:57.932Z,81.36
2019-06-10T04:35:29.120Z,80.40
2019-06-10T04:37:59.643Z,80.84
2019-06-10T04:40:30.049Z,81.16
2019-06-10T04:43:02.887Z,80.71
2019-06-10T04:45:32.649Z,80.84
2019-06-10T04:48:03.251Z,80.71
2019-06-10T04:50:42.155Z,81.39
2019-06-10T04:53:05.821Z,82.40
2019-06-10T04:55:36.167Z,82.22
2019-06-10T04:58:06.642Z,81.84
2019-06-10T05:00:37.076Z,82.29
2019-06-10T05:03:07.503Z,82.50
2019-06-10T05:05:37.976Z,82.28
2019-06-10T05:08:08.464Z,82.43
2019-06-10T05:10:38.925Z,82.84
2019-06-10T05:13:09.414Z,82.95
2019-06-10T05:15:39.801Z,82.79
2019-06-10T05:18:10.281Z,83.19
2019-06-10T05:20:54.079Z,82.54
2019-06-10T05:23:13.180Z,83.50
2019-06-10T05:25:43.666Z,83.75
2019-06-10T05:28:14.189Z,83.20
2019-06-10T05:30:44.524Z,83.15
2019-06-10T05:33:15.003Z,83.79
2019-06-10T05:35:45.416Z,82.32
2019-06-10T05:38:15.987Z,82.28
2019-06-10T05:40:46.393Z,82.58
2019-06-10T05:43:16.834Z,83.55
2019-06-10T05:45:47.273Z,82.36
2019-06-10T05:48:17.665Z,82.24
2019-06-10T05:51:00.122Z,85.56
2019-06-10T05:53:23.115Z,86.92
2019-06-10T05:55:53.049Z,88.38
2019-06-10T05:58:24.793Z,89.12
2019-06-10T06:00:55.772Z,89.07
2019-06-10T06:03:26.294Z,87.79
2019-06-10T06:05:56.797Z,89.20
2019-06-10T06:08:27.513Z,90.14
2019-06-10T06:10:57.906Z,91.04
2019-06-10T06:13:29.462Z,92.70
2019-06-10T06:16:00.076Z,92.55
2019-06-10T06:18:33.210Z,92.07
2019-06-10T06:21:19.352Z,93.61
2019-06-10T06:23:36.735Z,94.31
2019-06-10T06:26:06.818Z,93.19
2019-06-10T06:28:38.251Z,92.76
2019-06-10T06:31:08.795Z,95.11
2019-06-10T06:33:39.893Z,94.47
2019-06-10T06:36:12.595Z,94.00
2019-06-10T06:38:43.882Z,94.03
2019-06-10T06:41:14.387Z,95.24
2019-06-10T06:43:45.484Z,95.85
2019-06-10T06:46:16.040Z,95.63
2019-06-10T06:48:46.532Z,95.50
2019-06-10T06:51:32.633Z,94.30
2019-06-10T06:53:53.064Z,95.27
2019-06-10T06:56:23.080Z,94.28
2019-06-10T06:58:53.754Z,93.23
2019-06-10T07:01:25.870Z,92.08
2019-06-10T07:03:56.453Z,94.83
2019-06-10T07:06:27.345Z,94.95
2019-06-10T07:09:04.665Z,93.09
2019-06-10T07:11:36.985Z,94.10
2019-06-10T07:14:09.208Z,93.13
2019-06-10T07:16:39.694Z,94.40
2019-06-10T07:19:10.184Z,91.99
2019-06-10T07:22:02.761Z,93.91
2019-06-10T07:24:12.886Z,92.39
2019-06-10T07:26:50.606Z,94.57
2019-06-10T07:29:15.475Z,92.71
2019-06-10T07:31:50.010Z,91.80
2019-06-10T07:34:18.241Z,91.07
2019-06-10T07:36:48.650Z,91.25
2019-06-10T07:39:19.019Z,90.51
2019-06-10T07:41:49.506Z,90.23
2019-06-10T07:44:22.507Z,89.76
2019-06-10T07:46:52.984Z,86.40
2019-06-10T07:49:24.033Z,83.54
2019-06-10T07:51:54.593Z,83.32
2019-06-10T07:54:25.067Z,82.39
2019-06-10T07:56:55.650Z,81.50
2019-06-10T07:59:26.159Z,79.74
2019-06-10T08:01:56.720Z,79.15
2019-06-10T08:04:27.053Z,78.25
2019-06-10T08:06:57.552Z,79.43
2019-06-10T08:09:27.995Z,75.91
2019-06-10T08:11:58.377Z,75.03
2019-06-10T08:14:28.845Z,75.36
2019-06-10T08:16:59.322Z,77.56
2019-06-10T08:19:37.455Z,78.92
2019-06-10T08:22:02.885Z,80.02
2019-06-10T08:24:33.542Z,77.07
2019-06-10T08:27:04.415Z,74.55
2019-06-10T08:29:34.897Z,76.27
2019-06-10T08:32:05.433Z,76.47
2019-06-10T08:34:40.814Z,73.37
2019-06-10T08:37:13.626Z,73.32
2019-06-10T08:39:45.858Z,71.82
2019-06-10T08:42:15.845Z,68.42
2019-06-10T08:44:48.434Z,68.54
2019-06-10T08:47:18.541Z,69.48
2019-06-10T08:49:49.205Z,67.89
2019-06-10T08:52:19.856Z,67.95
2019-06-10T08:54:54.082Z,65.79
2019-06-10T08:57:23.858Z,63.18
2019-06-10T08:59:54.805Z,65.38
2019-06-10T09:02:25.339Z,64.02
2019-06-10T09:04:56.207Z,63.12
2019-06-10T09:07:26.667Z,65.01
2019-06-10T09:09:58.971Z,62.06
2019-06-10T09:12:33.957Z,63.17
2019-06-10T09:15:03.741Z,64.24
2019-06-10T09:17:33.965Z,67.32
2019-06-10T09:20:05.149Z,68.97
2019-06-10T09:22:35.530Z,66.83
2019-06-10T09:25:06.438Z,64.49
2019-06-10T09:27:36.851Z,65.07
2019-06-10T09:30:09.121Z,61.61
2019-06-10T09:32:39.809Z,63.47
2019-06-10T09:35:13.263Z,60.48
2019-06-10T09:37:48.370Z,61.74
2019-06-10T09:40:16.382Z,59.12
2019-06-10T09:42:50.250Z,62.65
2019-06-10T09:45:19.520Z,57.47
2019-06-10T09:47:55.547Z,59.09
2019-06-10T09:50:41.146Z,53.72
2019-06-10T09:53:12.706Z,54.81
2019-06-10T09:55:46.336Z,53.90
2019-06-10T09:58:16.413Z,55.65
2019-06-10T10:00:52.472Z,49.33
2019-06-10T10:03:23.922Z,50.16
2019-06-10T10:06:07.371Z,47.07
2019-06-10T10:08:25.827Z,50.70
2019-06-10T10:10:58.947Z,48.09
2019-06-10T10:13:28.738Z,48.67
2019-06-10T10:15:59.345Z,45.12
2019-06-10T10:18:32.640Z,47.22
2019-06-10T10:21:03.905Z,45.07
2019-06-10T10:23:50.352Z,45.58
2019-06-10T10:26:06.988Z,44.55
2019-06-10T10:28:37.468Z,43.24
2019-06-10T10:31:07.993Z,43.58
2019-06-10T10:33:38.408Z,38.33
2019-06-10T10:36:08.935Z,39.78
2019-06-10T10:38:39.369Z,38.82
2019-06-10T10:41:12.958Z,36.73
2019-06-10T10:43:45.730Z,36.88
2019-06-10T10:46:15.575Z,36.62
2019-06-10T10:48:47.070Z,35.03
2019-06-10T10:51:17.712Z,34.34
2019-06-10T10:53:57.282Z,31.32
2019-06-10T10:56:22.326Z,32.00
2019-06-10T10:58:57.672Z,31.47
2019-06-10T11:01:24.960Z,32.25
2019-06-10T11:03:58.891Z,32.63
2019-06-10T11:06:27.625Z,32.61
2019-06-10T11:08:58.042Z,31.70
2019-06-10T11:11:29.251Z,31.45
2019-06-10T11:14:03.543Z,33.08
2019-06-10T11:16:33.441Z,33.84
2019-06-10T11:19:03.919Z,30.59
2019-06-10T11:21:34.388Z,29.23
2019-06-10T11:24:05.275Z,27.44
2019-06-10T11:26:35.701Z,28.86
2019-06-10T11:29:06.151Z,31.10
2019-06-10T11:31:36.531Z,33.67
2019-06-10T11:34:06.987Z,34.49
2019-06-10T11:36:37.512Z,36.53
2019-06-10T11:39:09.528Z,33.72
2019-06-10T11:41:39.966Z,34.62
2019-06-10T11:44:10.406Z,35.51
2019-06-10T11:46:42.885Z,34.87
2019-06-10T11:49:13.131Z,36.51
2019-06-10T11:51:43.674Z,35.99
2019-06-10T11:54:15.007Z,38.95
2019-06-10T11:56:45.517Z,35.93
2019-06-10T11:59:16.307Z,39.12
2019-06-10T12:01:46.801Z,36.94
2019-06-10T12:04:18.001Z,38.13
2019-06-10T12:06:49.108Z,35.41
2019-06-10T12:09:20.756Z,36.62
2019-06-10T12:11:54.676Z,35.36
2019-06-10T12:14:26.987Z,35.89
2019-06-10T12:19:28.374Z,39.83
2019-06-10T12:22:04.636Z,41.63
2019-06-10T12:24:33.219Z,42.06
2019-06-10T12:27:05.034Z,39.34
2019-06-10T12:29:35.749Z,38.06
2019-06-10T12:32:07.942Z,38.06
2019-06-10T12:34:38.495Z,40.13
2019-06-10T12:37:13.004Z,37.76
2019-06-10T12:39:42.187Z,38.73
2019-06-10T12:42:14.405Z,40.22
2019-06-10T12:44:45.174Z,38.46
2019-06-10T12:47:15.629Z,37.55
2019-06-10T12:49:46.077Z,38.22
2019-06-10T12:52:16.631Z,36.65
2019-06-10T12:54:48.014Z,36.74
2019-06-10T12:57:19.070Z,36.53
2019-06-10T12:59:49.569Z,37.65
2019-06-10T13:02:24.004Z,37.85
2019-06-10T13:04:55.305Z,36.21
2019-06-10T13:07:26.015Z,34.06
2019-06-10T13:09:57.941Z,34.38
2019-06-10T13:12:28.452Z,33.57
2019-06-10T13:14:59.938Z,32.26
2019-06-10T13:17:31.033Z,34.25
2019-06-10T13:20:05.764Z,35.40
2019-06-10T13:22:33.832Z,34.96
2019-06-10T13:25:04.774Z,34.21
2019-06-10T13:27:35.415Z,33.06
2019-06-10T13:30:08.357Z,34.84
2019-06-10T13:32:39.050Z,35.26
2019-06-10T13:35:12.315Z,35.97
2019-06-10T13:37:42.877Z,34.69
2019-06-10T13:40:13.655Z,33.33
2019-06-10T13:42:44.083Z,33.20
2019-06-10T13:45:15.084Z,34.31
2019-06-10T13:47:45.551Z,34.23
2019-06-10T13:50:19.287Z,34.09
2019-06-10T13:52:49.134Z,34.07
2019-06-10T13:55:22.210Z,35.84
2019-06-10T13:57:53.223Z,34.63
2019-06-10T14:00:40.350Z,36.76
2019-06-10T14:02:56.608Z,37.57
2019-06-10T14:05:27.233Z,37.13
2019-06-10T14:07:57.857Z,37.93
2019-06-10T14:10:28.558Z,38.36
2019-06-10T14:12:59.124Z,37.25
2019-06-10T14:15:32.767Z,38.48
2019-06-10T14:18:04.300Z,37.71
2019-06-10T14:20:36.748Z,36.98
2019-06-10T14:23:08.022Z,38.84
2019-06-10T14:25:38.470Z,38.87
2019-06-10T14:28:11.976Z,38.56
2019-06-10T14:30:42.998Z,37.90
2019-06-10T14:33:16.530Z,38.78
2019-06-10T14:35:46.574Z,37.21
2019-06-10T14:38:17.166Z,39.33
2019-06-10T14:40:47.869Z,38.12
2019-06-10T14:43:18.604Z,38.68
2019-06-10T14:45:49.187Z,40.65
2019-06-10T14:48:22.974Z,41.14
2019-06-10T14:50:52.661Z,40.53
2019-06-10T14:53:23.352Z,41.59
2019-06-10T14:55:54.118Z,42.11
2019-06-10T14:58:24.911Z,43.24
2019-06-10T15:00:55.507Z,44.15
2019-06-10T15:03:26.535Z,44.15
2019-06-10T15:05:57.140Z,44.75
2019-06-10T15:08:27.785Z,45.52
2019-06-10T15:10:58.253Z,46.09
2019-06-10T15:13:28.779Z,47.15
2019-06-10T15:15:59.399Z,47.04
2019-06-10T15:18:29.907Z,48.28
2019-06-10T15:21:02.775Z,48.68
2019-06-10T15:23:32.768Z,48.96
2019-06-10T15:26:03.307Z,49.71
2019-06-10T15:28:33.840Z,49.85
2019-06-10T15:31:04.291Z,50.78
2019-06-10T15:33:34.879Z,51.94
2019-06-10T15:36:05.274Z,50.84
2019-06-10T15:38:35.909Z,51.25
2019-06-10T15:41:06.393Z,52.23
2019-06-10T15:43:36.879Z,51.83
2019-06-10T15:46:07.451Z,53.08
2019-06-10T15:48:37.880Z,53.18
2019-06-10T15:51:08.435Z,52.94
2019-06-10T15:53:38.933Z,53.61
2019-06-10T15:56:22.559Z,53.63
2019-06-10T15:58:43.278Z,53.56
2019-06-10T16:01:16.477Z,54.38
2019-06-10T16:03:45.918Z,55.04
2019-06-10T16:06:16.308Z,54.90
2019-06-10T16:08:46.763Z,54.58
2019-06-10T16:11:18.895Z,53.46
2019-06-10T16:13:49.353Z,53.10
2019-06-10T16:16:20.945Z,52.93
2019-06-10T16:18:52.781Z,52.73
2019-06-10T16:21:23.819Z,54.10
2019-06-10T16:23:54.241Z,54.64
2019-06-10T16:26:26.703Z,61.16
2019-06-10T16:28:57.539Z,71.70
2019-06-10T16:31:27.989Z,78.66
2019-06-10T16:33:58.524Z,84.40
2019-06-10T16:36:28.912Z,87.86
2019-06-10T16:38:59.275Z,93.30
2019-06-10T16:41:32.268Z,96.07
2019-06-10T16:44:02.976Z,97.78
2019-06-10T16:46:33.629Z,99.63
2019-06-10T16:49:04.164Z,100.00
2019-06-10T16:51:34.674Z,100.00
2019-06-10T16:54:05.562Z,100.00
2019-06-10T16:56:36.045Z,100.00
2019-06-10T16:59:06.518Z,100.00
2019-06-10T17:01:37.014Z,100.00
2019-06-10T17:04:08.077Z,100.00
2019-06-10T17:06:38.545Z,100.00
2019-06-10T17:09:09.566Z,100.00
2019-06-10T17:11:42.404Z,100.00
2019-06-10T17:14:14.856Z,100.00
2019-06-10T17:16:46.940Z,100.00
2019-06-10T17:19:18.619Z,100.00
2019-06-10T17:21:49.138Z,100.00
2019-06-10T17:24:21.028Z,100.00
2019-06-10T17:26:53.185Z,100.00
2019-06-10T17:29:25.943Z,100.00
2019-06-10T17:31:57.958Z,100.00
2019-06-10T17:34:29.674Z,98.25
2019-06-10T17:37:02.970Z,99.81
2019-06-10T17:39:34.509Z,100.00
2019-06-10T17:42:05.564Z,100.00
2019-06-10T17:44:35.991Z,99.29
2019-06-10T17:47:06.457Z,99.54
2019-06-10T17:49:42.051Z,98.79
2019-06-10T17:52:13.787Z,100.00
2019-06-10T17:54:46.859Z,100.00
2019-06-10T17:57:17.366Z,100.00
2019-06-10T17:59:47.911Z,100.00
2019-06-10T18:02:19.035Z,100.00
2019-06-10T18:04:52.637Z,100.00
2019-06-10T18:07:24.146Z,100.00
2019-06-10T18:09:57.454Z,100.00
2019-06-10T18:12:28.429Z,100.00
2019-06-10T18:15:03.496Z,100.00
2019-06-10T18:17:36.033Z,98.40
2019-06-10T18:20:07.226Z,98.58
2019-06-10T18:22:37.738Z,99.13
2019-06-10T18:25:09.073Z,98.35
2019-06-10T18:27:41.415Z,97.76
2019-06-10T18:30:14.466Z,98.22
2019-06-10T18:32:45.419Z,98.37
2019-06-10T18:35:16.613Z,97.90
2019-06-10T18:37:47.155Z,97.94
2019-06-10T18:40:18.634Z,97.97
2019-06-10T18:42:52.313Z,97.78
2019-06-10T18:45:24.107Z,98.00
2019-06-10T18:47:54.561Z,98.32
2019-06-10T18:50:28.104Z,97.96
2019-06-10T18:53:00.686Z,97.98
2019-06-10T18:55:35.885Z,98.05
2019-06-10T18:58:05.641Z,98.27
2019-06-10T19:00:53.434Z,98.53
2019-06-10T19:03:13.902Z,98.17
2019-06-10T19:05:42.165Z,98.45
2019-06-10T19:08:14.779Z,98.76
2019-06-10T19:10:45.784Z,97.37
2019-06-10T19:13:16.409Z,97.21
2019-06-10T19:15:48.253Z,96.28
2019-06-10T19:18:18.726Z,97.34
2019-06-10T19:20:49.434Z,97.16
2019-06-10T19:23:22.165Z,96.77
2019-06-10T19:25:53.639Z,97.44
2019-06-10T19:28:25.197Z,97.78
2019-06-10T19:30:55.827Z,97.61
2019-06-10T19:33:27.039Z,97.59
2019-06-10T19:35:57.851Z,98.06
2019-06-10T19:38:28.487Z,99.12
2019-06-10T19:40:59.345Z,99.31
2019-06-10T19:43:29.713Z,98.66
2019-06-10T19:46:02.990Z,98.38
2019-06-10T19:48:59.457Z,97.65
2019-06-10T19:51:24.094Z,98.01
2019-06-10T19:53:54.627Z,98.85
2019-06-10T19:56:26.527Z,98.81
2019-06-10T19:58:57.049Z,98.47
2019-06-10T20:01:27.415Z,98.60
2019-06-10T20:03:57.962Z,98.59
2019-06-10T20:06:28.442Z,98.00
2019-06-10T20:08:58.970Z,97.55
2019-06-10T20:11:32.226Z,97.55
2019-06-10T20:14:02.788Z,97.35
2019-06-10T20:16:33.252Z,97.75
2019-06-10T20:19:03.752Z,98.08
2019-06-10T20:21:34.184Z,98.34
2019-06-10T20:24:04.740Z,98.44
2019-06-10T20:26:36.552Z,97.60
2019-06-10T20:29:07.281Z,97.75
2019-06-10T20:31:37.916Z,96.84
2019-06-10T20:34:08.547Z,97.10
2019-06-10T20:36:39.374Z,98.22
2019-06-10T20:39:10.583Z,97.99
2019-06-10T20:41:44.263Z,97.41
2019-06-10T20:44:13.288Z,96.92
2019-06-10T20:46:46.143Z,97.82
2019-06-10T20:49:16.004Z,97.99
2019-06-10T20:52:01.595Z,96.85
2019-06-10T20:54:19.853Z,97.75
2019-06-10T20:56:53.180Z,97.98
2019-06-10T20:59:25.865Z,98.55
2019-06-10T21:01:56.667Z,98.01
2019-06-10T21:04:27.446Z,97.25
2019-06-10T21:07:02.475Z,97.52
2019-06-10T21:09:34.306Z,96.52
2019-06-10T21:12:04.785Z,97.58
2019-06-10T21:14:35.266Z,97.17
2019-06-10T21:17:05.731Z,97.32
2019-06-10T21:19:36.237Z,98.16
2019-06-10T21:22:07.537Z,98.33
2019-06-10T21:24:38.064Z,97.66
2019-06-10T21:27:08.572Z,97.03
2019-06-10T21:29:39.101Z,97.96
2019-06-10T21:32:09.633Z,97.73
2019-06-10T21:34:43.415Z,98.21
2019-06-10T21:37:13.172Z,98.08
2019-06-10T21:39:44.829Z,97.77
2019-06-10T21:42:15.867Z,96.92
2019-06-10T21:44:46.298Z,96.81
2019-06-10T21:47:16.848Z,97.16
2019-06-10T21:49:48.376Z,97.56
2019-06-10T21:52:18.932Z,96.53
2019-06-10T21:54:50.674Z,96.97
2019-06-10T21:57:22.121Z,96.71
2019-06-10T21:59:54.029Z,96.87
2019-06-10T22:02:24.856Z,97.58
2019-06-10T22:04:55.648Z,97.79
2019-06-10T22:07:26.153Z,97.44
2019-06-10T22:09:56.651Z,98.29
2019-06-10T22:12:27.200Z,98.61
2019-06-10T22:14:57.687Z,96.85
2019-06-10T22:17:28.082Z,96.94
2019-06-10T22:19:58.493Z,97.17
2019-06-10T22:22:28.934Z,97.05
2019-06-10T22:24:59.366Z,97.37
2019-06-10T22:27:29.874Z,96.88
2019-06-10T22:30:04.207Z,97.81
2019-06-10T22:32:32.504Z,98.00
2019-06-10T22:35:03.148Z,97.66
2019-06-10T22:37:33.586Z,97.36
2019-06-10T22:40:04.034Z,98.01
2019-06-10T22:42:34.486Z,97.71
2019-06-10T22:45:05.425Z,97.18
2019-06-10T22:47:35.885Z,97.32
2019-06-10T22:50:07.657Z,97.56
2019-06-10T22:52:38.351Z,97.63
2019-06-10T22:55:09.206Z,97.57
2019-06-10T22:57:43.744Z,97.83
2019-06-10T23:00:13.159Z,98.77
2019-06-10T23:02:43.930Z,98.54
2019-06-10T23:05:17.241Z,98.72
2019-06-10T23:07:46.736Z,98.47
2019-06-10T23:10:18.728Z,98.71
2019-06-10T23:12:49.151Z,98.06
2019-06-10T23:17:58.796Z,97.36
2019-06-10T23:20:29.439Z,97.54
2019-06-10T23:23:00.358Z,97.81
2019-06-10T23:25:32.602Z,97.61
2019-06-10T23:28:03.020Z,97.57
2019-06-10T23:30:33.543Z,97.64
2019-06-10T23:33:04.130Z,97.80
2019-06-10T23:35:34.641Z,98.11
2019-06-10T23:38:05.403Z,98.31
2019-06-10T23:40:35.885Z,97.91
2019-06-10T23:43:06.308Z,98.29
2019-06-10T23:45:36.682Z,98.06
2019-06-10T23:48:07.268Z,97.98
2019-06-10T23:50:37.735Z,98.08
2019-06-10T23:53:08.224Z,97.96
2019-06-10T23:55:38.685Z,98.69
2019-06-10T23:58:09.201Z,98.58
